Time;durP1;ratioP1;P1;durP2;ratioP2;P2;SDS_P1;SDS_P2;PMS_P1;PMS_P2;Temp;Humidity;BMP_temperature;BMP_pressure;BME280_temperature;BME280_humidity;BME280_pressure;Samples;Min_cycle;Max_cycle;Signal;HPM_P1;HPM_P2
2021/01/24 00:00:49;;;;;;;14.17;6.97;;;5.80;99.90;;;;;;5082042;28;20537;-77
2021/01/24 00:03:16;;;;;;;6.73;5.43;;;4.90;99.90;;;;;;5092476;28;20916;-76
2021/01/24 00:05:43;;;;;;;6.43;5.57;;;5.00;99.90;;;;;;5092378;28;20458;-76
2021/01/24 00:08:14;;;;;;;7.93;5.50;;;5.00;99.90;;;;;;5092584;28;20784;-76
2021/01/24 00:10:41;;;;;;;8.77;5.73;;;4.90;99.90;;;;;;5093547;28;20765;-76
2021/01/24 00:13:09;;;;;;;7.23;5.30;;;5.00;99.90;;;;;;5093012;28;20776;-77
2021/01/24 00:15:35;;;;;;;6.53;5.23;;;5.00;99.90;;;;;;5092996;28;20483;-76
2021/01/24 00:18:07;;;;;;;8.00;5.97;;;5.00;99.90;;;;;;5092605;28;20458;-77
2021/01/24 00:20:34;;;;;;;11.77;6.57;;;4.90;99.90;;;;;;5093000;28;20535;-76
2021/01/24 00:23:00;;;;;;;9.97;6.17;;;4.90;99.90;;;;;;5093043;28;20447;-83
2021/01/24 00:25:26;;;;;;;6.73;5.60;;;4.90;99.90;;;;;;5093064;28;20452;-76
2021/01/24 00:27:57;;;;;;;7.43;5.53;;;4.90;99.90;;;;;;5093300;28;20915;-76
2021/01/24 00:30:24;;;;;;;6.33;4.67;;;4.90;99.90;;;;;;5093017;28;20438;-77
2021/01/24 00:32:51;;;;;;;5.67;3.90;;;4.90;99.90;;;;;;5093590;28;20918;-77
2021/01/24 00:35:18;;;;;;;6.23;3.70;;;4.90;99.90;;;;;;5092928;28;20807;-77
2021/01/24 00:37:44;;;;;;;3.43;2.63;;;4.90;99.90;;;;;;5085859;28;20428;-76
2021/01/24 00:40:16;;;;;;;5.13;2.50;;;4.80;99.90;;;;;;5076953;28;20450;-76
2021/01/24 00:42:42;;;;;;;3.37;2.77;;;4.80;99.90;;;;;;5093255;28;20910;-76
2021/01/24 00:45:10;;;;;;;3.83;2.57;;;4.70;99.90;;;;;;5093022;28;20457;-77
2021/01/24 00:47:37;;;;;;;7.93;2.90;;;4.70;99.90;;;;;;5093015;28;20456;-76
2021/01/24 00:50:06;;;;;;;4.30;3.27;;;4.70;99.90;;;;;;5093398;28;20472;-77
2021/01/24 00:52:32;;;;;;;4.87;3.10;;;4.60;99.90;;;;;;5093439;28;20456;-76
2021/01/24 00:54:58;;;;;;;5.27;3.70;;;4.60;99.90;;;;;;5093204;28;20579;-83
2021/01/24 00:57:25;;;;;;;6.07;4.53;;;4.50;99.90;;;;;;5092618;28;20446;-77
2021/01/24 00:59:52;;;;;;;6.60;4.20;;;4.30;99.90;;;;;;5092644;28;20455;-77
2021/01/24 01:02:18;;;;;;;7.53;4.50;;;4.20;99.90;;;;;;5092557;28;20532;-77
2021/01/24 01:04:45;;;;;;;7.33;5.00;;;4.30;99.90;;;;;;5093239;28;20448;-77
2021/01/24 01:07:12;;;;;;;6.83;5.80;;;4.20;99.90;;;;;;5092858;28;20454;-77
2021/01/24 01:09:38;;;;;;;6.00;4.80;;;4.20;99.90;;;;;;5092652;28;20453;-78
2021/01/24 01:12:06;;;;;;;5.33;3.77;;;4.20;99.90;;;;;;5092046;28;20449;-78
2021/01/24 01:14:32;;;;;;;5.37;4.17;;;4.00;99.90;;;;;;5092349;28;20454;-77
2021/01/24 01:16:58;;;;;;;5.00;3.60;;;4.00;99.90;;;;;;5093850;28;20453;-80
2021/01/24 01:19:25;;;;;;;4.90;3.77;;;3.90;99.90;;;;;;5094472;28;20520;-77
2021/01/24 01:21:52;;;;;;;6.13;4.50;;;3.80;99.90;;;;;;5095797;28;20456;-77
2021/01/24 01:24:18;;;;;;;8.90;5.20;;;3.80;99.90;;;;;;5094952;28;20453;-77
2021/01/24 01:26:45;;;;;;;7.07;5.70;;;3.80;99.90;;;;;;5096105;28;20544;-77
2021/01/24 01:29:11;;;;;;;5.90;4.83;;;3.80;99.90;;;;;;5095563;28;20514;-77
2021/01/24 01:31:37;;;;;;;11.00;7.70;;;3.80;99.90;;;;;;5096003;28;20471;-77
2021/01/24 01:34:04;;;;;;;17.20;9.13;;;3.80;99.90;;;;;;5095002;28;20448;-83
2021/01/24 01:36:30;;;;;;;10.30;7.80;;;3.70;99.90;;;;;;5095835;28;20494;-77
2021/01/24 01:38:58;;;;;;;12.77;8.37;;;3.80;99.90;;;;;;5096138;28;20458;-77
2021/01/24 01:41:29;;;;;;;10.87;8.07;;;3.80;99.90;;;;;;5095010;28;20462;-77
2021/01/24 01:43:55;;;;;;;12.40;9.40;;;3.80;99.90;;;;;;5095932;28;20432;-76
2021/01/24 01:46:22;;;;;;;11.33;9.40;;;3.60;99.90;;;;;;5094905;28;20459;-77
2021/01/24 01:48:49;;;;;;;17.70;11.43;;;3.60;99.90;;;;;;5095925;28;20448;-76
2021/01/24 01:51:15;;;;;;;12.60;9.87;;;3.30;99.90;;;;;;5094953;28;20462;-76
2021/01/24 01:53:43;;;;;;;9.90;8.40;;;3.30;99.90;;;;;;5094973;28;20516;-77
2021/01/24 01:56:10;;;;;;;16.37;10.90;;;3.40;99.90;;;;;;5094193;28;20496;-76
2021/01/24 01:58:36;;;;;;;17.00;11.70;;;3.30;99.90;;;;;;5095119;28;20840;-76
2021/01/24 02:01:05;;;;;;;10.53;8.17;;;3.20;99.90;;;;;;5095187;28;20872;-83
2021/01/24 02:03:45;;;;;;;10.93;7.63;;;3.10;99.90;;;;;;5095485;28;20762;-77
2021/01/24 02:06:16;;;;;;;11.10;7.37;;;3.10;99.90;;;;;;5094556;28;20445;-79
2021/01/24 02:08:51;;;;;;;8.73;6.40;;;3.10;99.90;;;;;;5075393;28;20447;-76
2021/01/24 02:11:27;;;;;;;8.70;5.63;;;3.10;99.90;;;;;;5084118;28;20445;-76
2021/01/24 02:13:58;;;;;;;10.47;6.20;;;3.00;99.90;;;;;;5095330;28;20434;-76
2021/01/24 02:16:28;;;;;;;7.93;5.37;;;2.90;99.90;;;;;;5093795;28;20521;-76
2021/01/24 02:18:56;;;;;;;6.80;4.83;;;2.90;99.90;;;;;;5094193;28;20510;-77
2021/01/24 02:21:29;;;;;;;8.07;4.23;;;2.80;99.90;;;;;;5093719;28;20445;-76
2021/01/24 02:23:58;;;;;;;5.47;3.73;;;2.80;99.90;;;;;;5094902;28;20417;-77
2021/01/24 02:26:39;;;;;;;4.70;3.30;;;2.70;99.90;;;;;;5094267;28;20452;-76
2021/01/24 02:29:13;;;;;;;4.00;2.70;;;2.70;99.90;;;;;;5094516;28;20460;-83
2021/01/24 02:31:43;;;;;;;6.10;2.73;;;2.70;99.90;;;;;;5095015;28;20442;-76
2021/01/24 02:34:10;;;;;;;3.37;2.57;;;2.60;99.90;;;;;;5094288;28;20450;-77
2021/01/24 02:36:38;;;;;;;3.57;2.37;;;2.60;99.90;;;;;;5094465;28;20470;-76
2021/01/24 02:39:06;;;;;;;3.97;2.40;;;2.60;99.90;;;;;;5094668;28;20446;-84
2021/01/24 02:41:34;;;;;;;3.70;2.17;;;2.50;99.90;;;;;;5094780;28;20478;-76
2021/01/24 02:44:01;;;;;;;3.53;2.50;;;2.50;99.90;;;;;;5094542;28;20422;-76
2021/01/24 02:46:28;;;;;;;3.90;2.70;;;2.60;99.90;;;;;;5093519;28;20457;-76
2021/01/24 02:48:55;;;;;;;3.47;3.07;;;2.60;99.90;;;;;;5094374;28;20447;-76
2021/01/24 02:51:22;;;;;;;4.53;3.60;;;2.50;99.90;;;;;;5094022;28;20971;-76
2021/01/24 02:53:50;;;;;;;5.13;3.57;;;2.50;99.90;;;;;;5094477;28;20474;-77
2021/01/24 02:56:17;;;;;;;5.80;4.17;;;2.30;99.90;;;;;;5093834;28;20577;-78
2021/01/24 02:58:44;;;;;;;6.23;3.73;;;2.40;99.90;;;;;;5092007;28;20450;-77
2021/01/24 03:01:10;;;;;;;4.10;3.03;;;2.40;99.90;;;;;;5093261;28;20975;-77
2021/01/24 03:03:37;;;;;;;3.50;2.80;;;2.40;99.90;;;;;;5094463;28;20462;-77
2021/01/24 03:06:05;;;;;;;4.90;3.20;;;2.50;99.90;;;;;;5093891;28;20512;-77
2021/01/24 03:08:31;;;;;;;5.00;3.13;;;2.50;99.90;;;;;;5093673;28;20450;-77
2021/01/24 03:10:59;;;;;;;8.00;3.53;;;2.60;99.90;;;;;;5094058;28;20514;-77
2021/01/24 03:13:30;;;;;;;5.20;3.33;;;2.60;99.90;;;;;;5093387;28;20443;-77
2021/01/24 03:15:58;;;;;;;3.97;3.33;;;2.60;99.90;;;;;;5094289;28;20565;-77
2021/01/24 03:18:26;;;;;;;5.77;4.20;;;2.60;99.90;;;;;;5092927;28;20461;-77
2021/01/24 03:20:55;;;;;;;4.70;3.43;;;2.60;99.90;;;;;;5076309;28;20458;-77
2021/01/24 03:23:22;;;;;;;4.70;3.80;;;2.70;99.90;;;;;;5073518;28;20446;-77
2021/01/24 03:25:50;;;;;;;4.27;3.50;;;2.70;99.90;;;;;;5073775;28;20551;-77
2021/01/24 03:28:17;;;;;;;3.70;2.63;;;2.80;99.90;;;;;;5086014;28;20444;-77
2021/01/24 03:30:43;;;;;;;5.07;3.50;;;2.80;99.90;;;;;;5093678;28;20447;-77
2021/01/24 03:33:10;;;;;;;4.50;3.23;;;2.90;99.90;;;;;;5093548;28;20454;-81
2021/01/24 03:35:36;;;;;;;6.10;4.00;;;2.80;99.90;;;;;;5093295;28;20482;-77
2021/01/24 03:38:03;;;;;;;4.80;3.33;;;2.80;99.90;;;;;;5093527;28;20453;-78
2021/01/24 03:40:30;;;;;;;4.00;2.87;;;2.90;99.90;;;;;;5092808;28;20439;-78
2021/01/24 03:42:56;;;;;;;4.73;3.27;;;2.90;99.90;;;;;;5094309;28;20453;-77
2021/01/24 03:45:23;;;;;;;5.67;4.30;;;3.00;99.90;;;;;;5092724;28;20491;-77
2021/01/24 03:47:49;;;;;;;6.47;4.43;;;3.00;99.90;;;;;;5093628;28;20455;-77
2021/01/24 03:50:16;;;;;;;6.37;4.33;;;2.90;99.90;;;;;;5093110;28;20789;-77
2021/01/24 03:52:42;;;;;;;5.00;4.10;;;3.00;99.90;;;;;;5093164;28;20987;-77
2021/01/24 03:55:09;;;;;;;7.07;5.43;;;3.00;99.90;;;;;;5093149;28;20486;-84
2021/01/24 03:57:36;;;;;;;11.03;7.60;;;3.00;99.90;;;;;;5093439;28;20496;-77
2021/01/24 04:00:05;;;;;;;10.40;8.30;;;3.00;99.90;;;;;;5093137;28;20898;-77
2021/01/24 04:02:31;;;;;;;14.70;10.77;;;3.00;99.90;;;;;;5089979;28;20455;-77
2021/01/24 04:04:57;;;;;;;13.80;10.47;;;2.90;99.90;;;;;;5072969;28;20459;-77
2021/01/24 04:07:24;;;;;;;16.60;13.53;;;2.90;99.90;;;;;;5072236;28;20449;-77
2021/01/24 04:09:50;;;;;;;16.83;12.03;;;2.90;99.90;;;;;;5073484;28;20451;-77
2021/01/24 04:12:16;;;;;;;17.47;12.30;;;2.90;99.90;;;;;;5078237;28;20806;-77
2021/01/24 04:14:44;;;;;;;16.20;12.63;;;2.80;99.90;;;;;;5093483;28;20444;-77
2021/01/24 04:17:11;;;;;;;14.87;12.93;;;2.80;99.90;;;;;;5092689;28;20494;-85
2021/01/24 04:19:37;;;;;;;15.10;11.37;;;2.90;99.90;;;;;;5093117;28;20458;-77
2021/01/24 04:22:03;;;;;;;17.70;14.20;;;2.90;99.90;;;;;;5093200;28;20888;-77
2021/01/24 04:24:30;;;;;;;17.17;12.93;;;2.80;99.90;;;;;;5093002;28;20501;-77
2021/01/24 04:26:56;;;;;;;14.73;12.03;;;2.80;99.90;;;;;;5093581;28;21037;-77
2021/01/24 04:29:22;;;;;;;15.23;13.03;;;2.70;99.90;;;;;;5092399;28;20448;-78
2021/01/24 04:31:49;;;;;;;16.57;13.17;;;2.60;99.90;;;;;;5092952;28;20450;-78
2021/01/24 04:34:16;;;;;;;13.67;12.00;;;2.60;99.90;;;;;;5090023;28;20875;-79
2021/01/24 04:36:42;;;;;;;16.77;14.50;;;2.60;99.90;;;;;;5093300;28;20492;-78
2021/01/24 04:39:09;;;;;;;16.33;13.23;;;2.50;99.90;;;;;;5093140;28;20483;-85
2021/01/24 04:41:36;;;;;;;17.70;14.50;;;2.50;99.90;;;;;;5092306;28;20533;-78
2021/01/24 04:44:04;;;;;;;18.50;15.13;;;2.40;99.90;;;;;;5093294;28;20583;-78
2021/01/24 04:46:31;;;;;;;19.10;16.30;;;2.30;99.90;;;;;;5092350;28;20453;-78
2021/01/24 04:49:00;;;;;;;22.17;18.17;;;2.30;99.90;;;;;;5092675;28;20449;-78
2021/01/24 04:51:26;;;;;;;21.07;16.90;;;2.30;99.90;;;;;;5093030;28;20583;-78
2021/01/24 04:53:53;;;;;;;30.80;21.60;;;2.20;99.90;;;;;;5096795;28;20481;-78
2021/01/24 04:56:20;;;;;;;19.77;16.20;;;2.20;99.90;;;;;;5095815;28;20224;-78
2021/01/24 04:58:46;;;;;;;15.80;13.77;;;2.20;99.90;;;;;;5096672;28;20605;-77
2021/01/24 05:01:16;;;;;;;15.13;12.77;;;2.20;99.90;;;;;;5095639;28;20453;-85
2021/01/24 05:03:42;;;;;;;14.30;12.60;;;2.20;99.90;;;;;;5096427;28;20499;-78
2021/01/24 05:06:10;;;;;;;14.13;11.63;;;2.30;99.90;;;;;;5096820;28;20456;-77
2021/01/24 05:08:36;;;;;;;13.67;12.27;;;2.20;99.90;;;;;;5090529;28;20477;-78
2021/01/24 05:11:04;;;;;;;11.10;9.87;;;2.20;99.90;;;;;;5076411;28;20454;-78
2021/01/24 05:13:31;;;;;;;10.97;9.20;;;2.20;99.90;;;;;;5075988;28;20436;-78
2021/01/24 05:15:58;;;;;;;10.27;8.57;;;2.20;99.90;;;;;;5092207;28;20816;-78
2021/01/24 05:18:24;;;;;;;9.43;8.00;;;2.10;99.90;;;;;;5095375;28;20460;-78
2021/01/24 05:20:52;;;;;;;9.30;8.23;;;2.00;99.90;;;;;;5096358;28;20445;-78
2021/01/24 05:23:22;;;;;;;9.30;7.03;;;1.90;99.90;;;;;;5095255;28;20450;-78
2021/01/24 05:25:49;;;;;;;9.53;7.30;;;1.90;99.90;;;;;;5095459;28;20454;-78
2021/01/24 05:28:21;;;;;;;12.97;9.83;;;1.70;99.90;;;;;;5095134;28;20438;-80
2021/01/24 05:30:48;;;;;;;11.00;7.97;;;1.70;99.90;;;;;;5095816;28;20930;-79
2021/01/24 05:33:16;;;;;;;10.88;8.57;;;1.70;99.90;;;;;;5095356;28;20417;-85
2021/01/24 05:35:47;;;;;;;9.25;7.00;;;1.70;99.90;;;;;;5095152;28;20219;-80
2021/01/24 05:38:23;;;;;;;15.13;10.07;;;1.70;99.90;;;;;;5092562;28;20205;-84
2021/01/24 05:40:50;;;;;;;11.73;8.50;;;1.60;99.90;;;;;;5075713;28;20191;-78
2021/01/24 05:43:17;;;;;;;14.77;10.65;;;1.70;99.90;;;;;;5074441;28;20458;-79
2021/01/24 05:45:44;;;;;;;10.45;7.75;;;1.70;99.90;;;;;;5079497;28;20210;-78
2021/01/24 05:48:10;;;;;;;13.20;10.13;;;1.60;99.90;;;;;;5095455;28;20203;-77
2021/01/24 05:50:37;;;;;;;11.93;8.80;;;1.60;99.90;;;;;;5094808;28;20758;-78
2021/01/24 05:53:05;;;;;;;11.32;8.27;;;1.70;99.90;;;;;;5094877;28;20469;-78
2021/01/24 05:55:34;;;;;;;12.83;10.17;;;1.80;99.90;;;;;;5093923;28;20236;-78
2021/01/24 05:58:15;;;;;;;14.17;10.70;;;1.80;99.90;;;;;;5094951;28;20458;-77
2021/01/24 06:00:43;;;;;;;12.37;8.80;;;1.70;99.90;;;;;;5094944;28;20417;-78
2021/01/24 06:03:10;;;;;;;11.52;8.85;;;1.70;99.90;;;;;;5094708;28;20518;-77
2021/01/24 06:05:37;;;;;;;11.97;8.70;;;1.70;99.90;;;;;;5094279;28;20214;-78
2021/01/24 06:08:04;;;;;;;16.30;9.02;;;1.70;99.90;;;;;;5094764;28;20499;-78
2021/01/24 06:10:30;;;;;;;12.57;9.63;;;1.70;99.90;;;;;;5074385;28;20207;-78
2021/01/24 06:13:00;;;;;;;12.27;9.37;;;1.70;99.90;;;;;;5077882;28;20459;-78
2021/01/24 06:15:28;;;;;;;13.33;8.60;;;1.70;99.90;;;;;;5088112;28;20474;-78
2021/01/24 06:17:57;;;;;;;9.95;7.30;;;1.80;99.90;;;;;;5094488;28;20838;-78
2021/01/24 06:20:27;;;;;;;11.60;9.50;;;1.70;99.90;;;;;;5094100;28;20219;-78
2021/01/24 06:22:58;;;;;;;10.10;7.43;;;1.70;99.90;;;;;;5095356;28;20184;-77
2021/01/24 06:25:29;;;;;;;11.10;7.95;;;1.80;99.90;;;;;;5092977;28;20454;-78
2021/01/24 06:28:03;;;;;;;8.88;6.88;;;1.80;99.90;;;;;;5094663;28;20192;-77
2021/01/24 06:30:30;;;;;;;10.90;7.30;;;1.80;99.90;;;;;;5094171;28;20192;-77
2021/01/24 06:33:11;;;;;;;15.17;8.63;;;1.80;99.90;;;;;;5094774;28;20460;-77
2021/01/24 06:35:44;;;;;;;9.57;7.33;;;1.80;99.90;;;;;;5093132;28;20466;-77
2021/01/24 06:38:11;;;;;;;11.35;8.18;;;1.90;99.90;;;;;;5094923;28;20763;-77
2021/01/24 06:40:43;;;;;;;14.73;9.67;;;1.90;99.90;;;;;;5093660;28;20202;-77
2021/01/24 06:43:10;;;;;;;12.07;8.90;;;1.80;99.90;;;;;;5094748;28;20468;-77
2021/01/24 06:45:39;;;;;;;11.85;8.77;;;1.80;99.90;;;;;;5093713;28;20462;-78
2021/01/24 06:48:06;;;;;;;12.17;9.90;;;1.80;99.90;;;;;;5094631;28;20207;-78
2021/01/24 06:50:51;;;;;;;11.73;9.20;;;1.80;99.90;;;;;;5093534;28;20453;-78
2021/01/24 06:53:21;;;;;;;16.30;12.30;;;1.90;99.90;;;;;;5094250;28;20470;-84
2021/01/24 06:55:58;;;;;;;14.60;10.93;;;1.90;99.90;;;;;;5094797;28;20480;-79
2021/01/24 06:58:27;;;;;;;13.10;9.40;;;1.90;99.90;;;;;;5093868;28;20441;-79
2021/01/24 07:01:13;;;;;;;13.13;9.50;;;2.00;99.90;;;;;;5094176;28;20929;-80
2021/01/24 07:03:40;;;;;;;13.00;10.03;;;2.00;99.90;;;;;;5093718;28;20581;-78
2021/01/24 07:06:31;;;;;;;15.20;12.10;;;2.10;99.90;;;;;;5094748;28;20454;-79
2021/01/24 07:08:58;;;;;;;13.90;10.80;;;2.10;99.90;;;;;;5089073;28;20454;-78
2021/01/24 07:11:48;;;;;;;18.27;12.15;;;2.10;99.90;;;;;;5088528;28;20495;-79
2021/01/24 07:14:48;;;;;;;15.20;11.57;;;2.00;99.90;;;;;;5093746;28;20208;-78
2021/01/24 07:17:17;;;;;;;16.90;12.20;;;2.00;99.90;;;;;;5077975;28;20498;-80
2021/01/24 07:19:46;;;;;;;17.60;12.17;;;2.00;99.90;;;;;;5093057;28;20546;-78
2021/01/24 07:22:13;;;;;;;14.23;11.13;;;2.00;99.90;;;;;;5094361;28;20423;-78
2021/01/24 07:24:40;;;;;;;15.33;10.97;;;2.10;99.90;;;;;;5093575;28;20942;-79
2021/01/24 07:27:08;;;;;;;15.20;11.57;;;2.10;99.90;;;;;;5093857;28;20450;-79
2021/01/24 07:29:35;;;;;;;14.73;10.77;;;2.10;99.90;;;;;;5093321;28;20452;-78
2021/01/24 07:32:07;;;;;;;13.63;9.83;;;2.10;99.90;;;;;;5093615;28;20442;-78
2021/01/24 07:34:34;;;;;;;13.27;8.90;;;2.10;99.90;;;;;;5093773;28;20507;-78
2021/01/24 07:37:01;;;;;;;11.93;8.60;;;2.10;99.90;;;;;;5094162;28;20865;-78
2021/01/24 07:39:29;;;;;;;15.87;10.87;;;2.20;99.90;;;;;;5093296;28;20464;-78
2021/01/24 07:41:56;;;;;;;13.57;9.20;;;2.10;99.90;;;;;;5098255;28;20792;-78
2021/01/24 07:44:22;;;;;;;13.27;10.20;;;2.20;99.90;;;;;;5093376;28;20522;-78
2021/01/24 07:46:49;;;;;;;12.40;9.10;;;2.20;99.90;;;;;;5093303;28;20515;-78
2021/01/24 07:49:16;;;;;;;15.47;10.30;;;2.20;99.90;;;;;;5095037;28;20210;-78
2021/01/24 07:51:43;;;;;;;20.60;12.13;;;2.20;99.90;;;;;;5094010;28;20457;-78
2021/01/24 07:54:10;;;;;;;13.57;10.00;;;2.20;99.90;;;;;;5095487;28;20482;-78
2021/01/24 07:56:38;;;;;;;15.37;10.90;;;2.20;99.90;;;;;;5094603;28;20831;-78
2021/01/24 07:59:04;;;;;;;13.33;9.57;;;2.20;99.90;;;;;;5094672;28;20776;-78
2021/01/24 08:01:31;;;;;;;37.67;21.17;;;2.30;99.90;;;;;;5094386;28;20442;-78
2021/01/24 08:04:00;;;;;;;63.10;30.47;;;2.30;99.90;;;;;;5094253;28;20446;-78
2021/01/24 08:06:28;;;;;;;25.87;15.30;;;2.30;99.90;;;;;;5093322;28;20948;-79
2021/01/24 08:08:55;;;;;;;15.37;10.93;;;2.30;99.90;;;;;;5093229;28;20455;-78
2021/01/24 08:11:24;;;;;;;13.87;10.43;;;2.30;99.90;;;;;;5095714;28;20446;-84
2021/01/24 08:13:51;;;;;;;13.97;9.30;;;2.40;99.90;;;;;;5095849;28;20443;-78
2021/01/24 08:16:21;;;;;;;16.30;9.57;;;2.40;99.90;;;;;;5095216;28;20959;-78
2021/01/24 08:18:51;;;;;;;17.70;10.50;;;2.40;99.90;;;;;;5091128;28;20579;-78
2021/01/24 08:21:19;;;;;;;15.90;11.37;;;2.40;99.90;;;;;;5094070;28;20450;-78
2021/01/24 08:23:46;;;;;;;17.50;12.43;;;2.50;99.90;;;;;;5093858;28;20449;-78
2021/01/24 08:26:13;;;;;;;21.93;13.27;;;2.50;99.90;;;;;;5096238;28;20450;-77
2021/01/24 08:28:41;;;;;;;18.17;13.93;;;2.50;99.90;;;;;;5098376;28;20554;-76
2021/01/24 08:31:07;;;;;;;19.83;14.60;;;2.50;99.90;;;;;;5097961;28;20448;-77
2021/01/24 08:33:35;;;;;;;22.90;13.87;;;2.60;99.90;;;;;;5084467;28;20448;-76
2021/01/24 08:36:13;;;;;;;21.27;13.23;;;2.70;99.90;;;;;;5078206;28;20486;-76
2021/01/24 08:38:41;;;;;;;21.73;15.30;;;2.60;99.90;;;;;;5077586;28;20445;-78
2021/01/24 08:41:08;;;;;;;23.50;15.33;;;2.60;99.90;;;;;;5077236;28;20453;-79
2021/01/24 08:43:35;;;;;;;21.13;13.87;;;2.60;99.90;;;;;;5085591;28;20447;-78
2021/01/24 08:46:20;;;;;;;26.50;13.43;;;2.60;99.90;;;;;;5080213;28;20569;-78
2021/01/24 08:49:01;;;;;;;23.00;13.73;;;2.60;99.90;;;;;;5077587;28;20530;-79
2021/01/24 08:51:51;;;;;;;20.67;14.20;;;2.70;99.90;;;;;;5077439;28;20441;-79
2021/01/24 08:54:28;;;;;;;23.10;15.23;;;2.70;99.90;;;;;;5081170;28;20478;-78
2021/01/24 08:57:12;;;;;;;25.90;15.93;;;2.60;99.90;;;;;;5097519;28;20444;-78
2021/01/24 08:59:39;;;;;;;27.90;17.07;;;2.70;99.90;;;;;;5097939;28;20745;-78
2021/01/24 09:02:06;;;;;;;23.50;16.03;;;2.70;99.90;;;;;;5097515;28;20453;-78
2021/01/24 09:04:35;;;;;;;25.73;18.10;;;2.80;99.90;;;;;;5097161;28;20446;-78
2021/01/24 09:07:10;;;;;;;24.90;18.73;;;2.80;99.90;;;;;;5097543;28;20450;-80
2021/01/24 09:09:39;;;;;;;25.27;16.80;;;2.80;99.90;;;;;;5097130;28;20783;-79
2021/01/24 09:12:06;;;;;;;28.23;20.10;;;2.80;99.90;;;;;;5097867;28;20446;-78
2021/01/24 09:14:33;;;;;;;49.67;30.47;;;2.90;99.90;;;;;;5097266;28;20453;-78
2021/01/24 09:17:07;;;;;;;39.60;25.10;;;2.80;99.90;;;;;;5097618;28;20523;-78
2021/01/24 09:19:35;;;;;;;34.07;20.00;;;2.80;99.90;;;;;;5096985;28;20434;-78
2021/01/24 09:22:02;;;;;;;32.97;22.03;;;2.90;99.90;;;;;;5095911;28;20421;-78
2021/01/24 09:24:29;;;;;;;33.90;21.73;;;2.90;99.90;;;;;;5083411;28;20504;-79
2021/01/24 09:26:55;;;;;;;33.80;21.93;;;3.00;99.90;;;;;;5097075;28;20522;-78
2021/01/24 09:29:22;;;;;;;32.60;20.73;;;3.00;99.90;;;;;;5096624;28;20559;-79
2021/01/24 09:31:49;;;;;;;33.93;20.27;;;3.00;99.90;;;;;;5096586;28;20454;-78
2021/01/24 09:34:16;;;;;;;35.13;22.13;;;3.00;99.90;;;;;;5097089;28;20446;-78
2021/01/24 09:36:42;;;;;;;34.07;22.17;;;3.10;99.90;;;;;;5096023;28;21140;-78
2021/01/24 09:39:09;;;;;;;37.63;22.97;;;3.10;99.90;;;;;;5096296;28;20481;-78
2021/01/24 09:41:36;;;;;;;34.47;22.83;;;3.00;99.90;;;;;;5096462;28;20451;-78
2021/01/24 09:44:03;;;;;;;34.57;19.97;;;3.00;99.90;;;;;;5096505;28;20442;-78
2021/01/24 09:46:30;;;;;;;28.93;19.00;;;3.00;99.90;;;;;;5096131;28;20906;-78
2021/01/24 09:48:57;;;;;;;29.20;19.60;;;3.00;99.90;;;;;;5096611;28;20439;-78
2021/01/24 09:51:24;;;;;;;30.50;17.73;;;3.10;99.90;;;;;;5096044;28;20428;-81
2021/01/24 09:53:51;;;;;;;28.60;18.07;;;3.20;99.90;;;;;;5096359;28;20554;-77
2021/01/24 09:56:18;;;;;;;36.73;20.80;;;3.10;99.90;;;;;;5096386;28;20484;-77
2021/01/24 09:58:44;;;;;;;26.30;17.83;;;3.20;99.90;;;;;;5092067;28;20462;-78
2021/01/24 10:01:11;;;;;;;25.70;17.03;;;3.30;99.90;;;;;;5093969;28;20934;-78
2021/01/24 10:03:37;;;;;;;26.90;16.47;;;3.30;99.90;;;;;;5095832;28;20547;-78
2021/01/24 10:06:05;;;;;;;22.73;16.73;;;3.40;99.90;;;;;;5095754;28;20454;-77
2021/01/24 10:08:31;;;;;;;24.13;16.50;;;3.40;99.90;;;;;;5095723;28;20838;-78
2021/01/24 10:10:58;;;;;;;25.63;16.70;;;3.40;99.90;;;;;;5095923;28;20958;-78
2021/01/24 10:13:25;;;;;;;28.83;16.80;;;3.40;99.90;;;;;;5095883;28;20442;-84
2021/01/24 10:15:51;;;;;;;22.17;17.13;;;3.40;99.90;;;;;;5095425;28;20483;-77
2021/01/24 10:18:18;;;;;;;23.33;15.60;;;3.50;99.90;;;;;;5096338;28;20537;-78
2021/01/24 10:20:45;;;;;;;25.60;16.10;;;3.40;99.90;;;;;;5095349;28;20483;-78
2021/01/24 10:23:13;;;;;;;20.63;14.77;;;3.50;99.90;;;;;;5096455;28;20446;-78
2021/01/24 10:25:39;;;;;;;22.47;15.67;;;3.50;99.90;;;;;;5095248;28;20442;-77
2021/01/24 10:28:07;;;;;;;21.87;15.53;;;3.50;99.90;;;;;;5094028;28;20902;-77
2021/01/24 10:30:34;;;;;;;22.07;13.97;;;3.50;99.90;;;;;;5094257;28;20790;-77
2021/01/24 10:33:00;;;;;;;21.80;14.10;;;3.40;99.90;;;;;;5095878;28;20453;-76
2021/01/24 10:35:27;;;;;;;28.93;15.40;;;3.40;99.90;;;;;;5094360;28;20446;-80
2021/01/24 10:37:53;;;;;;;19.10;11.50;;;3.30;99.90;;;;;;5093858;28;20810;-77
2021/01/24 10:40:21;;;;;;;22.63;12.67;;;3.40;99.90;;;;;;5095099;28;20449;-77
2021/01/24 10:42:47;;;;;;;19.07;12.17;;;3.50;99.90;;;;;;5095138;28;20530;-77
2021/01/24 10:45:14;;;;;;;20.77;12.90;;;3.60;99.90;;;;;;5092450;28;20525;-83
2021/01/24 10:47:40;;;;;;;15.73;11.40;;;3.50;99.90;;;;;;5094786;28;20453;-77
2021/01/24 10:50:09;;;;;;;16.77;11.00;;;3.50;99.90;;;;;;5095125;28;20475;-77
2021/01/24 10:52:36;;;;;;;16.27;11.23;;;3.50;99.90;;;;;;5094524;28;20538;-85
2021/01/24 10:55:02;;;;;;;22.73;13.57;;;3.60;99.90;;;;;;5094371;28;20782;-77
2021/01/24 10:57:29;;;;;;;20.47;13.80;;;3.50;99.90;;;;;;5092969;28;20503;-83
2021/01/24 10:59:56;;;;;;;20.43;15.97;;;3.50;99.90;;;;;;5088780;28;20881;-77
2021/01/24 11:02:22;;;;;;;24.27;16.50;;;3.50;99.90;;;;;;5094448;28;20905;-77
2021/01/24 11:04:48;;;;;;;23.03;15.70;;;3.40;99.90;;;;;;5092486;28;21096;-78
2021/01/24 11:07:15;;;;;;;24.07;15.83;;;3.50;99.90;;;;;;5081095;28;20457;-77
2021/01/24 11:09:42;;;;;;;21.90;15.90;;;3.50;99.90;;;;;;5085606;28;20472;-77
2021/01/24 11:12:08;;;;;;;21.97;15.20;;;3.40;99.90;;;;;;5095166;28;20411;-77
2021/01/24 11:14:36;;;;;;;21.00;14.40;;;3.50;99.90;;;;;;5089564;28;20421;-78
2021/01/24 11:17:02;;;;;;;22.27;14.50;;;3.50;99.90;;;;;;5094307;28;20817;-78
2021/01/24 11:19:28;;;;;;;23.60;11.87;;;3.50;99.90;;;;;;5092628;28;20562;-84
2021/01/24 11:21:55;;;;;;;17.80;11.67;;;3.60;99.90;;;;;;5090390;28;20542;-77
2021/01/24 11:24:21;;;;;;;14.20;10.40;;;3.50;99.90;;;;;;5094538;28;20482;-77
2021/01/24 11:26:48;;;;;;;13.13;9.20;;;3.50;99.90;;;;;;5091826;28;20476;-77
2021/01/24 11:29:15;;;;;;;15.77;10.83;;;3.50;99.90;;;;;;5081922;28;20478;-77
2021/01/24 11:31:42;;;;;;;12.57;8.97;;;3.60;99.90;;;;;;5091136;28;20450;-76
2021/01/24 11:34:08;;;;;;;14.47;10.37;;;3.60;99.90;;;;;;5079216;28;20552;-77
2021/01/24 11:36:35;;;;;;;13.20;8.93;;;3.60;99.90;;;;;;5094466;28;20526;-77
2021/01/24 11:39:01;;;;;;;15.87;11.03;;;3.60;99.90;;;;;;5088479;28;20600;-77
2021/01/24 11:41:28;;;;;;;17.80;9.20;;;3.50;99.90;;;;;;5093994;28;20447;-79
2021/01/24 11:43:55;;;;;;;16.73;13.03;;;3.50;99.90;;;;;;5092225;28;20442;-77
2021/01/24 11:46:21;;;;;;;16.37;11.37;;;3.60;99.90;;;;;;5094017;28;20534;-77
2021/01/24 11:48:48;;;;;;;15.13;10.20;;;3.50;99.90;;;;;;5094305;28;20746;-77
2021/01/24 11:51:15;;;;;;;13.50;8.90;;;3.50;99.90;;;;;;5093595;28;20537;-77
2021/01/24 11:53:42;;;;;;;14.30;10.20;;;3.60;99.90;;;;;;5093683;28;20462;-77
2021/01/24 11:56:08;;;;;;;16.60;11.23;;;3.60;99.90;;;;;;5094090;28;20471;-76
2021/01/24 11:58:35;;;;;;;15.97;10.93;;;3.70;99.90;;;;;;5094150;28;20600;-77
2021/01/24 12:01:01;;;;;;;19.40;12.07;;;3.70;99.90;;;;;;5092709;28;20484;-77
2021/01/24 12:03:28;;;;;;;24.33;14.73;;;3.80;99.90;;;;;;5094579;28;20459;-76
2021/01/24 12:05:55;;;;;;;20.83;13.80;;;3.80;99.90;;;;;;5093595;28;20485;-77
2021/01/24 12:08:21;;;;;;;25.90;15.40;;;3.80;99.90;;;;;;5093288;28;20767;-77
2021/01/24 12:10:48;;;;;;;24.90;15.80;;;3.80;99.90;;;;;;5094274;28;20540;-77
2021/01/24 12:13:14;;;;;;;24.10;17.07;;;3.60;99.90;;;;;;5094448;28;20525;-77
2021/01/24 12:15:40;;;;;;;27.43;18.93;;;3.60;99.90;;;;;;5089624;28;20456;-78
2021/01/24 12:18:07;;;;;;;27.60;17.50;;;3.60;99.90;;;;;;5076838;28;20512;-78
2021/01/24 12:20:33;;;;;;;35.20;22.47;;;3.60;99.90;;;;;;5093071;28;20477;-83
2021/01/24 12:23:00;;;;;;;29.23;19.43;;;3.60;99.90;;;;;;5093587;28;20469;-78
2021/01/24 12:25:27;;;;;;;33.40;21.37;;;3.70;99.90;;;;;;5090552;28;21916;-79
2021/01/24 12:27:53;;;;;;;34.70;21.60;;;3.70;99.90;;;;;;5093788;28;20929;-78
2021/01/24 12:30:21;;;;;;;36.33;22.00;;;3.70;99.90;;;;;;5094080;28;20471;-77
2021/01/24 12:32:48;;;;;;;35.93;24.77;;;3.70;99.90;;;;;;5084420;28;20459;-77
2021/01/24 12:35:14;;;;;;;33.80;23.63;;;3.70;99.90;;;;;;5079827;28;20509;-77
2021/01/24 12:37:41;;;;;;;41.83;22.80;;;3.80;99.90;;;;;;5093503;28;21024;-77
2021/01/24 12:40:09;;;;;;;37.43;24.47;;;3.80;99.90;;;;;;5093765;28;20495;-77
2021/01/24 12:42:35;;;;;;;34.20;24.10;;;3.90;99.90;;;;;;5093723;28;20965;-79
2021/01/24 12:45:03;;;;;;;36.93;25.40;;;3.90;99.90;;;;;;5094574;28;20793;-77
2021/01/24 12:47:30;;;;;;;34.87;24.33;;;3.90;99.90;;;;;;5094989;28;20916;-77